This is the latest recevied weather packets stored in our database for station/object KD7CTY. If no packets are shown the sender has not sent any weather packets the latest 10 day(s).
| Time | Temp. | Humidity | Pressure | Rain* | Wind** | Luminosity | Snow |
|---|---|---|---|---|---|---|---|
| 1777148293 | 18.89° C | 31% | 1010.5 hPa | 0 mm | - | 636 W/m² | - |
| 1777147990 | 18.33° C | 30% | 1010.8 hPa | 0 mm | - | 654 W/m² | - |
| 1777147686 | 17.78° C | 36% | 1010.7 hPa | 0 mm | - | 736 W/m² | - |
| 1777147382 | 17.78° C | 34% | 1010.7 hPa | 0 mm | - | 798 W/m² | - |
| 1777147076 | 17.78° C | 35% | 1010.8 hPa | 0 mm | - | 794 W/m² | - |
| 1777146773 | 17.78° C | 34% | 1010.9 hPa | 0 mm | - | 791 W/m² | - |
| 1777146469 | 17.78° C | 33% | 1011 hPa | 0 mm | - | 804 W/m² | - |
| 1777146165 | 17.78° C | 34% | 1011.1 hPa | 0 mm | - | 849 W/m² | - |
| 1777145861 | 17.78° C | 34% | 1011 hPa | 0 mm | - | 855 W/m² | - |
| 1777145558 | 17.78° C | 37% | 1011 hPa | 0 mm | - | 873 W/m² | - |
| 1777145253 | 16.67° C | 46% | 1011.3 hPa | 0 mm | - | 884 W/m² | - |
| 1777144948 | 17.22° C | 40% | 1011.5 hPa | 0 mm | - | 892 W/m² | - |
| 1777144647 | 17.22° C | 41% | 1011.6 hPa | 0 mm | - | 902 W/m² | - |
| 1777144342 | 17.22° C | 41% | 1011.6 hPa | 0 mm | - | 911 W/m² | - |
| 1777144039 | 17.22° C | 42% | 1011.7 hPa | 0 mm | - | 910 W/m² | - |
| 1777143735 | 16.67° C | 45% | 1011.7 hPa | 0 mm | - | 904 W/m² | - |
| 1777143432 | 17.22° C | 48% | 1011.7 hPa | 0 mm | - | 889 W/m² | - |
| 1777143128 | 16.11° C | 46% | 1011.6 hPa | 0 mm | - | 878 W/m² | - |
| 1777142823 | 16.67° C | 44% | 1011.9 hPa | 0 mm | - | 872 W/m² | - |
| 1777142521 | 16.11° C | 46% | 1012 hPa | 0 mm | - | 865 W/m² | - |
| 1777142220 | 16.11° C | 46% | 1011.9 hPa | 0 mm | - | 864 W/m² | - |
| 1777141917 | 15.56° C | 49% | 1011.9 hPa | 0 mm | - | 850 W/m² | - |
| 1777141614 | 15.56° C | 51% | 1011.8 hPa | 0 mm | - | 842 W/m² | - |
| 1777141313 | 15.56° C | 51% | 1011.9 hPa | 0 mm | - | 831 W/m² | - |
| 1777141009 | 16.11° C | 50% | 1011.8 hPa | 0 mm | - | 825 W/m² | - |
* Rain latest hour (hover to see other rain measurements)
** Current wind speed in m/s (hover to see current wind gust speed)